sensor_id;sensor_type;location;lat;lon;timestamp;P1;P2;P0
57289;PMS5003;43523;53.022;-1.178;2023-05-07T00:00:25;8;8;
57289;PMS5003;43523;53.022;-1.178;2023-05-07T00:01:27;7;7;
57289;PMS5003;43523;53.022;-1.178;2023-05-07T00:02:30;10;8;
57289;PMS5003;43523;53.022;-1.178;2023-05-07T00:03:32;8;6;
57289;PMS5003;43523;53.022;-1.178;2023-05-07T00:04:34;9;6;
57289;PMS5003;43523;53.022;-1.178;2023-05-07T00:05:37;6;6;
57289;PMS5003;43523;53.022;-1.178;2023-05-07T00:06:39;8;8;
57289;PMS5003;43523;53.022;-1.178;2023-05-07T00:07:41;9;8;
57289;PMS5003;43523;53.022;-1.178;2023-05-07T00:08:45;6;6;
57289;PMS5003;43523;53.022;-1.178;2023-05-07T00:09:48;10;10;
57289;PMS5003;43523;53.022;-1.178;2023-05-07T00:10:50;8;8;
57289;PMS5003;43523;53.022;-1.178;2023-05-07T00:11:53;11;11;
57289;PMS5003;43523;53.022;-1.178;2023-05-07T00:12:55;9;9;
57289;PMS5003;43523;53.022;-1.178;2023-05-07T00:13:57;9;9;
57289;PMS5003;43523;53.022;-1.178;2023-05-07T00:15:00;6;5;
57289;PMS5003;43523;53.022;-1.178;2023-05-07T00:16:04;12;8;
57289;PMS5003;43523;53.022;-1.178;2023-05-07T00:17:07;9;7;
57289;PMS5003;43523;53.022;-1.178;2023-05-07T00:18:10;10;10;
57289;PMS5003;43523;53.022;-1.178;2023-05-07T00:19:12;12;10;
57289;PMS5003;43523;53.022;-1.178;2023-05-07T00:20:14;10;10;
57289;PMS5003;43523;53.022;-1.178;2023-05-07T00:21:16;9;9;
57289;PMS5003;43523;53.022;-1.178;2023-05-07T00:22:18;13;12;
57289;PMS5003;43523;53.022;-1.178;2023-05-07T00:23:21;11;8;
57289;PMS5003;43523;53.022;-1.178;2023-05-07T00:24:23;13;11;
57289;PMS5003;43523;53.022;-1.178;2023-05-07T00:25:26;13;13;
57289;PMS5003;43523;53.022;-1.178;2023-05-07T00:26:28;12;11;
57289;PMS5003;43523;53.022;-1.178;2023-05-07T00:27:29;15;15;
57289;PMS5003;43523;53.022;-1.178;2023-05-07T00:28:32;11;10;
57289;PMS5003;43523;53.022;-1.178;2023-05-07T00:29:34;11;10;
57289;PMS5003;43523;53.022;-1.178;2023-05-07T00:30:37;12;10;
57289;PMS5003;43523;53.022;-1.178;2023-05-07T00:31:39;11;10;
57289;PMS5003;43523;53.022;-1.178;2023-05-07T00:32:41;14;12;
57289;PMS5003;43523;53.022;-1.178;2023-05-07T00:33:43;13;13;
57289;PMS5003;43523;53.022;-1.178;2023-05-07T00:34:46;13;12;
57289;PMS5003;43523;53.022;-1.178;2023-05-07T00:35:48;12;12;
57289;PMS5003;43523;53.022;-1.178;2023-05-07T00:36:50;11;11;
57289;PMS5003;43523;53.022;-1.178;2023-05-07T00:37:53;12;11;
57289;PMS5003;43523;53.022;-1.178;2023-05-07T00:38:56;10;10;
57289;PMS5003;43523;53.022;-1.178;2023-05-07T00:40:01;17;12;
57289;PMS5003;43523;53.022;-1.178;2023-05-07T00:41:03;14;13;
57289;PMS5003;43523;53.022;-1.178;2023-05-07T00:42:06;13;12;
57289;PMS5003;43523;53.022;-1.178;2023-05-07T00:43:08;13;13;
57289;PMS5003;43523;53.022;-1.178;2023-05-07T00:44:11;16;14;
57289;PMS5003;43523;53.022;-1.178;2023-05-07T00:45:14;12;9;
57289;PMS5003;43523;53.022;-1.178;2023-05-07T00:46:17;10;9;
57289;PMS5003;43523;53.022;-1.178;2023-05-07T00:47:21;12;11;
57289;PMS5003;43523;53.022;-1.178;2023-05-07T00:48:23;15;12;
57289;PMS5003;43523;53.022;-1.178;2023-05-07T00:49:33;13;12;
57289;PMS5003;43523;53.022;-1.178;2023-05-07T00:50:39;13;12;
57289;PMS5003;43523;53.022;-1.178;2023-05-07T00:51:41;13;12;
57289;PMS5003;43523;53.022;-1.178;2023-05-07T00:52:44;18;15;
57289;PMS5003;43523;53.022;-1.178;2023-05-07T00:53:52;19;13;
57289;PMS5003;43523;53.022;-1.178;2023-05-07T00:54:55;13;11;
57289;PMS5003;43523;53.022;-1.178;2023-05-07T00:55:58;11;10;
57289;PMS5003;43523;53.022;-1.178;2023-05-07T00:57:01;12;10;
57289;PMS5003;43523;53.022;-1.178;2023-05-07T00:58:04;12;11;
57289;PMS5003;43523;53.022;-1.178;2023-05-07T00:59:07;10;10;
57289;PMS5003;43523;53.022;-1.178;2023-05-07T01:00:10;10;10;
57289;PMS5003;43523;53.022;-1.178;2023-05-07T01:01:13;13;12;
57289;PMS5003;43523;53.022;-1.178;2023-05-07T01:02:16;13;12;
57289;PMS5003;43523;53.022;-1.178;2023-05-07T01:03:19;12;11;
57289;PMS5003;43523;53.022;-1.178;2023-05-07T01:04:22;10;10;
57289;PMS5003;43523;53.022;-1.178;2023-05-07T01:05:24;15;11;
57289;PMS5003;43523;53.022;-1.178;2023-05-07T01:06:28;16;15;
57289;PMS5003;43523;53.022;-1.178;2023-05-07T01:07:32;14;13;
57289;PMS5003;43523;53.022;-1.178;2023-05-07T01:08:35;12;12;
57289;PMS5003;43523;53.022;-1.178;2023-05-07T01:09:38;11;9;
57289;PMS5003;43523;53.022;-1.178;2023-05-07T01:10:42;12;11;
57289;PMS5003;43523;53.022;-1.178;2023-05-07T01:11:44;17;14;
57289;PMS5003;43523;53.022;-1.178;2023-05-07T01:12:48;12;12;
57289;PMS5003;43523;53.022;-1.178;2023-05-07T01:13:52;12;12;
57289;PMS5003;43523;53.022;-1.178;2023-05-07T01:14:55;20;17;
57289;PMS5003;43523;53.022;-1.178;2023-05-07T01:15:57;11;11;
57289;PMS5003;43523;53.022;-1.178;2023-05-07T01:16:59;14;12;
57289;PMS5003;43523;53.022;-1.178;2023-05-07T01:18:01;10;8;
57289;PMS5003;43523;53.022;-1.178;2023-05-07T01:19:04;13;10;
57289;PMS5003;43523;53.022;-1.178;2023-05-07T01:20:08;15;13;
57289;PMS5003;43523;53.022;-1.178;2023-05-07T01:21:11;11;9;
57289;PMS5003;43523;53.022;-1.178;2023-05-07T01:22:14;10;9;
57289;PMS5003;43523;53.022;-1.178;2023-05-07T01:23:22;10;9;
57289;PMS5003;43523;53.022;-1.178;2023-05-07T01:24:25;12;11;
57289;PMS5003;43523;53.022;-1.178;2023-05-07T01:25:28;11;10;
57289;PMS5003;43523;53.022;-1.178;2023-05-07T01:26:31;11;11;
57289;PMS5003;43523;53.022;-1.178;2023-05-07T01:27:34;13;12;
57289;PMS5003;43523;53.022;-1.178;2023-05-07T01:28:37;14;10;
57289;PMS5003;43523;53.022;-1.178;2023-05-07T01:29:39;15;14;
57289;PMS5003;43523;53.022;-1.178;2023-05-07T01:30:42;16;15;
57289;PMS5003;43523;53.022;-1.178;2023-05-07T01:31:47;16;12;
57289;PMS5003;43523;53.022;-1.178;2023-05-07T01:32:53;18;15;
57289;PMS5003;43523;53.022;-1.178;2023-05-07T01:34:01;18;14;
57289;PMS5003;43523;53.022;-1.178;2023-05-07T01:35:07;21;18;
57289;PMS5003;43523;53.022;-1.178;2023-05-07T01:36:12;15;14;
57289;PMS5003;43523;53.022;-1.178;2023-05-07T01:37:16;14;13;
57289;PMS5003;43523;53.022;-1.178;2023-05-07T01:38:18;12;12;
57289;PMS5003;43523;53.022;-1.178;2023-05-07T01:39:23;15;15;
57289;PMS5003;43523;53.022;-1.178;2023-05-07T01:40:27;19;17;
57289;PMS5003;43523;53.022;-1.178;2023-05-07T01:41:34;15;14;
57289;PMS5003;43523;53.022;-1.178;2023-05-07T01:42:36;15;13;
57289;PMS5003;43523;53.022;-1.178;2023-05-07T01:43:40;18;17;
57289;PMS5003;43523;53.022;-1.178;2023-05-07T01:44:43;16;12;
57289;PMS5003;43523;53.022;-1.178;2023-05-07T01:45:46;12;12;
57289;PMS5003;43523;53.022;-1.178;2023-05-07T01:46:49;17;16;
57289;PMS5003;43523;53.022;-1.178;2023-05-07T01:47:52;17;14;
57289;PMS5003;43523;53.022;-1.178;2023-05-07T01:48:55;14;13;
57289;PMS5003;43523;53.022;-1.178;2023-05-07T01:49:57;15;15;
57289;PMS5003;43523;53.022;-1.178;2023-05-07T01:51:00;14;13;
57289;PMS5003;43523;53.022;-1.178;2023-05-07T01:52:03;15;14;
57289;PMS5003;43523;53.022;-1.178;2023-05-07T01:53:06;15;13;
57289;PMS5003;43523;53.022;-1.178;2023-05-07T01:54:09;17;12;
57289;PMS5003;43523;53.022;-1.178;2023-05-07T01:55:11;20;19;
57289;PMS5003;43523;53.022;-1.178;2023-05-07T01:56:13;19;17;
57289;PMS5003;43523;53.022;-1.178;2023-05-07T01:57:15;16;13;
57289;PMS5003;43523;53.022;-1.178;2023-05-07T01:58:17;16;15;
57289;PMS5003;43523;53.022;-1.178;2023-05-07T01:59:20;21;17;
57289;PMS5003;43523;53.022;-1.178;2023-05-07T02:00:23;20;17;
57289;PMS5003;43523;53.022;-1.178;2023-05-07T02:01:25;20;18;
57289;PMS5003;43523;53.022;-1.178;2023-05-07T02:02:28;16;14;
57289;PMS5003;43523;53.022;-1.178;2023-05-07T02:03:29;21;18;
57289;PMS5003;43523;53.022;-1.178;2023-05-07T02:04:32;21;19;
57289;PMS5003;43523;53.022;-1.178;2023-05-07T02:05:34;22;20;
57289;PMS5003;43523;53.022;-1.178;2023-05-07T02:06:36;17;14;
57289;PMS5003;43523;53.022;-1.178;2023-05-07T02:07:38;13;13;
57289;PMS5003;43523;53.022;-1.178;2023-05-07T02:08:41;19;16;
57289;PMS5003;43523;53.022;-1.178;2023-05-07T02:09:43;19;15;
57289;PMS5003;43523;53.022;-1.178;2023-05-07T02:10:46;18;14;
57289;PMS5003;43523;53.022;-1.178;2023-05-07T02:11:48;16;14;
57289;PMS5003;43523;53.022;-1.178;2023-05-07T02:12:50;17;15;
57289;PMS5003;43523;53.022;-1.178;2023-05-07T02:13:52;21;17;
57289;PMS5003;43523;53.022;-1.178;2023-05-07T02:14:55;15;14;
57289;PMS5003;43523;53.022;-1.178;2023-05-07T02:15:57;17;16;
57289;PMS5003;43523;53.022;-1.178;2023-05-07T02:16:59;21;19;
57289;PMS5003;43523;53.022;-1.178;2023-05-07T02:18:02;24;22;
57289;PMS5003;43523;53.022;-1.178;2023-05-07T02:19:06;17;14;
57289;PMS5003;43523;53.022;-1.178;2023-05-07T02:20:09;16;15;
57289;PMS5003;43523;53.022;-1.178;2023-05-07T02:21:12;17;14;
57289;PMS5003;43523;53.022;-1.178;2023-05-07T02:22:14;14;12;
57289;PMS5003;43523;53.022;-1.178;2023-05-07T02:23:16;13;12;
57289;PMS5003;43523;53.022;-1.178;2023-05-07T02:24:19;18;17;
57289;PMS5003;43523;53.022;-1.178;2023-05-07T02:25:21;16;14;
57289;PMS5003;43523;53.022;-1.178;2023-05-07T02:26:24;18;16;
57289;PMS5003;43523;53.022;-1.178;2023-05-07T02:27:26;20;18;
57289;PMS5003;43523;53.022;-1.178;2023-05-07T02:28:28;19;17;
57289;PMS5003;43523;53.022;-1.178;2023-05-07T02:29:30;14;13;
57289;PMS5003;43523;53.022;-1.178;2023-05-07T02:30:33;16;16;
57289;PMS5003;43523;53.022;-1.178;2023-05-07T02:31:35;16;13;
57289;PMS5003;43523;53.022;-1.178;2023-05-07T02:32:37;22;19;
57289;PMS5003;43523;53.022;-1.178;2023-05-07T02:33:40;21;18;
57289;PMS5003;43523;53.022;-1.178;2023-05-07T02:34:42;19;16;
57289;PMS5003;43523;53.022;-1.178;2023-05-07T02:35:46;19;17;
57289;PMS5003;43523;53.022;-1.178;2023-05-07T02:36:48;19;17;
57289;PMS5003;43523;53.022;-1.178;2023-05-07T02:37:50;21;18;
57289;PMS5003;43523;53.022;-1.178;2023-05-07T02:38:52;23;20;
57289;PMS5003;43523;53.022;-1.178;2023-05-07T02:39:55;20;18;
57289;PMS5003;43523;53.022;-1.178;2023-05-07T02:40:57;17;14;
57289;PMS5003;43523;53.022;-1.178;2023-05-07T02:41:59;18;16;
57289;PMS5003;43523;53.022;-1.178;2023-05-07T02:43:02;15;14;
57289;PMS5003;43523;53.022;-1.178;2023-05-07T02:44:10;21;17;
57289;PMS5003;43523;53.022;-1.178;2023-05-07T02:45:12;23;20;
57289;PMS5003;43523;53.022;-1.178;2023-05-07T02:46:14;18;18;
57289;PMS5003;43523;53.022;-1.178;2023-05-07T02:47:16;17;16;
57289;PMS5003;43523;53.022;-1.178;2023-05-07T02:48:18;21;16;
57289;PMS5003;43523;53.022;-1.178;2023-05-07T02:49:21;18;16;
57289;PMS5003;43523;53.022;-1.178;2023-05-07T02:50:25;14;14;
57289;PMS5003;43523;53.022;-1.178;2023-05-07T02:51:27;16;14;
57289;PMS5003;43523;53.022;-1.178;2023-05-07T02:52:32;15;14;
57289;PMS5003;43523;53.022;-1.178;2023-05-07T02:53:35;17;16;
57289;PMS5003;43523;53.022;-1.178;2023-05-07T02:54:37;19;17;
57289;PMS5003;43523;53.022;-1.178;2023-05-07T02:55:40;19;18;
57289;PMS5003;43523;53.022;-1.178;2023-05-07T02:56:42;19;17;
57289;PMS5003;43523;53.022;-1.178;2023-05-07T02:57:46;19;18;
57289;PMS5003;43523;53.022;-1.178;2023-05-07T02:58:48;23;20;
57289;PMS5003;43523;53.022;-1.178;2023-05-07T02:59:50;26;23;
57289;PMS5003;43523;53.022;-1.178;2023-05-07T03:00:52;15;15;
57289;PMS5003;43523;53.022;-1.178;2023-05-07T03:01:55;25;18;
57289;PMS5003;43523;53.022;-1.178;2023-05-07T03:02:57;25;18;
57289;PMS5003;43523;53.022;-1.178;2023-05-07T03:03:59;22;19;
57289;PMS5003;43523;53.022;-1.178;2023-05-07T03:05:02;19;16;
57289;PMS5003;43523;53.022;-1.178;2023-05-07T03:06:04;18;17;
57289;PMS5003;43523;53.022;-1.178;2023-05-07T03:07:07;21;18;
57289;PMS5003;43523;53.022;-1.178;2023-05-07T03:08:10;19;19;
57289;PMS5003;43523;53.022;-1.178;2023-05-07T03:09:12;23;16;
57289;PMS5003;43523;53.022;-1.178;2023-05-07T03:10:15;17;16;
57289;PMS5003;43523;53.022;-1.178;2023-05-07T03:11:18;19;16;
57289;PMS5003;43523;53.022;-1.178;2023-05-07T03:12:21;30;24;
57289;PMS5003;43523;53.022;-1.178;2023-05-07T03:13:23;21;19;
57289;PMS5003;43523;53.022;-1.178;2023-05-07T03:14:25;19;18;
57289;PMS5003;43523;53.022;-1.178;2023-05-07T03:15:27;17;14;
57289;PMS5003;43523;53.022;-1.178;2023-05-07T03:16:31;20;16;
57289;PMS5003;43523;53.022;-1.178;2023-05-07T03:17:33;18;16;
57289;PMS5003;43523;53.022;-1.178;2023-05-07T03:18:35;21;19;
57289;PMS5003;43523;53.022;-1.178;2023-05-07T03:19:38;19;18;
57289;PMS5003;43523;53.022;-1.178;2023-05-07T03:20:40;14;12;
57289;PMS5003;43523;53.022;-1.178;2023-05-07T03:21:43;15;13;
57289;PMS5003;43523;53.022;-1.178;2023-05-07T03:22:47;12;11;
57289;PMS5003;43523;53.022;-1.178;2023-05-07T03:23:51;14;11;
57289;PMS5003;43523;53.022;-1.178;2023-05-07T03:24:53;16;14;
57289;PMS5003;43523;53.022;-1.178;2023-05-07T03:25:56;19;16;
57289;PMS5003;43523;53.022;-1.178;2023-05-07T03:26:58;20;17;
57289;PMS5003;43523;53.022;-1.178;2023-05-07T03:28:00;19;19;
57289;PMS5003;43523;53.022;-1.178;2023-05-07T03:29:02;20;19;
57289;PMS5003;43523;53.022;-1.178;2023-05-07T03:30:06;20;17;
57289;PMS5003;43523;53.022;-1.178;2023-05-07T03:31:09;18;15;
57289;PMS5003;43523;53.022;-1.178;2023-05-07T03:32:12;14;12;
57289;PMS5003;43523;53.022;-1.178;2023-05-07T03:33:14;23;18;
57289;PMS5003;43523;53.022;-1.178;2023-05-07T03:34:16;15;15;
57289;PMS5003;43523;53.022;-1.178;2023-05-07T03:35:19;17;13;
57289;PMS5003;43523;53.022;-1.178;2023-05-07T03:36:21;16;16;
57289;PMS5003;43523;53.022;-1.178;2023-05-07T03:37:30;23;17;
57289;PMS5003;43523;53.022;-1.178;2023-05-07T03:38:33;18;15;
57289;PMS5003;43523;53.022;-1.178;2023-05-07T03:39:35;20;16;
57289;PMS5003;43523;53.022;-1.178;2023-05-07T03:40:37;18;16;
57289;PMS5003;43523;53.022;-1.178;2023-05-07T03:41:40;23;19;
57289;PMS5003;43523;53.022;-1.178;2023-05-07T03:42:42;18;14;
57289;PMS5003;43523;53.022;-1.178;2023-05-07T03:43:44;20;15;
57289;PMS5003;43523;53.022;-1.178;2023-05-07T03:44:47;16;14;
57289;PMS5003;43523;53.022;-1.178;2023-05-07T03:45:50;18;15;
57289;PMS5003;43523;53.022;-1.178;2023-05-07T03:46:52;13;11;
57289;PMS5003;43523;53.022;-1.178;2023-05-07T03:47:55;20;18;
57289;PMS5003;43523;53.022;-1.178;2023-05-07T03:48:57;20;15;
57289;PMS5003;43523;53.022;-1.178;2023-05-07T03:50:00;23;16;
57289;PMS5003;43523;53.022;-1.178;2023-05-07T03:51:02;20;13;
57289;PMS5003;43523;53.022;-1.178;2023-05-07T03:52:06;17;15;
57289;PMS5003;43523;53.022;-1.178;2023-05-07T03:53:09;18;14;
57289;PMS5003;43523;53.022;-1.178;2023-05-07T03:54:12;13;11;
57289;PMS5003;43523;53.022;-1.178;2023-05-07T03:55:14;17;14;
57289;PMS5003;43523;53.022;-1.178;2023-05-07T03:56:17;24;20;
57289;PMS5003;43523;53.022;-1.178;2023-05-07T03:57:20;21;14;
57289;PMS5003;43523;53.022;-1.178;2023-05-07T03:58:22;15;13;
57289;PMS5003;43523;53.022;-1.178;2023-05-07T03:59:24;18;18;
57289;PMS5003;43523;53.022;-1.178;2023-05-07T04:00:27;22;18;
57289;PMS5003;43523;53.022;-1.178;2023-05-07T04:01:29;25;17;
57289;PMS5003;43523;53.022;-1.178;2023-05-07T04:02:32;24;14;
57289;PMS5003;43523;53.022;-1.178;2023-05-07T04:03:34;20;13;
57289;PMS5003;43523;53.022;-1.178;2023-05-07T04:04:37;20;17;
57289;PMS5003;43523;53.022;-1.178;2023-05-07T04:05:40;22;17;
57289;PMS5003;43523;53.022;-1.178;2023-05-07T04:06:42;17;16;
57289;PMS5003;43523;53.022;-1.178;2023-05-07T04:07:46;15;13;
57289;PMS5003;43523;53.022;-1.178;2023-05-07T04:08:48;12;11;
57289;PMS5003;43523;53.022;-1.178;2023-05-07T04:09:51;16;14;
57289;PMS5003;43523;53.022;-1.178;2023-05-07T04:10:54;23;16;
57289;PMS5003;43523;53.022;-1.178;2023-05-07T04:11:57;25;18;
57289;PMS5003;43523;53.022;-1.178;2023-05-07T04:12:59;16;13;
57289;PMS5003;43523;53.022;-1.178;2023-05-07T04:14:01;16;14;
57289;PMS5003;43523;53.022;-1.178;2023-05-07T04:15:03;25;20;
57289;PMS5003;43523;53.022;-1.178;2023-05-07T04:16:09;25;20;
57289;PMS5003;43523;53.022;-1.178;2023-05-07T04:17:11;20;15;
57289;PMS5003;43523;53.022;-1.178;2023-05-07T04:18:13;22;19;
57289;PMS5003;43523;53.022;-1.178;2023-05-07T04:19:16;14;13;
57289;PMS5003;43523;53.022;-1.178;2023-05-07T04:20:18;19;15;
57289;PMS5003;43523;53.022;-1.178;2023-05-07T04:21:21;22;18;
57289;PMS5003;43523;53.022;-1.178;2023-05-07T04:22:23;17;14;
57289;PMS5003;43523;53.022;-1.178;2023-05-07T04:23:26;18;14;
57289;PMS5003;43523;53.022;-1.178;2023-05-07T04:24:31;16;12;
57289;PMS5003;43523;53.022;-1.178;2023-05-07T04:25:34;19;15;
57289;PMS5003;43523;53.022;-1.178;2023-05-07T04:26:37;16;13;
57289;PMS5003;43523;53.022;-1.178;2023-05-07T04:27:39;16;13;
57289;PMS5003;43523;53.022;-1.178;2023-05-07T04:28:41;15;13;
57289;PMS5003;43523;53.022;-1.178;2023-05-07T04:29:44;11;10;
57289;PMS5003;43523;53.022;-1.178;2023-05-07T04:30:47;14;14;
57289;PMS5003;43523;53.022;-1.178;2023-05-07T04:31:50;17;14;
57289;PMS5003;43523;53.022;-1.178;2023-05-07T04:32:53;19;17;
57289;PMS5003;43523;53.022;-1.178;2023-05-07T04:33:55;14;13;
57289;PMS5003;43523;53.022;-1.178;2023-05-07T04:34:58;15;14;
57289;PMS5003;43523;53.022;-1.178;2023-05-07T04:36:01;10;10;
57289;PMS5003;43523;53.022;-1.178;2023-05-07T04:37:04;20;15;
57289;PMS5003;43523;53.022;-1.178;2023-05-07T04:38:07;11;9;
57289;PMS5003;43523;53.022;-1.178;2023-05-07T04:39:09;18;13;
57289;PMS5003;43523;53.022;-1.178;2023-05-07T04:40:13;20;14;
57289;PMS5003;43523;53.022;-1.178;2023-05-07T04:41:17;17;13;
57289;PMS5003;43523;53.022;-1.178;2023-05-07T04:42:19;13;11;
57289;PMS5003;43523;53.022;-1.178;2023-05-07T04:43:22;15;15;
57289;PMS5003;43523;53.022;-1.178;2023-05-07T04:44:25;13;10;
57289;PMS5003;43523;53.022;-1.178;2023-05-07T04:45:27;14;13;
57289;PMS5003;43523;53.022;-1.178;2023-05-07T04:46:30;16;11;
57289;PMS5003;43523;53.022;-1.178;2023-05-07T04:47:32;14;12;
57289;PMS5003;43523;53.022;-1.178;2023-05-07T04:48:34;15;12;
57289;PMS5003;43523;53.022;-1.178;2023-05-07T04:49:36;13;11;
57289;PMS5003;43523;53.022;-1.178;2023-05-07T04:50:39;13;11;
57289;PMS5003;43523;53.022;-1.178;2023-05-07T04:51:42;13;10;
57289;PMS5003;43523;53.022;-1.178;2023-05-07T04:52:44;20;17;
57289;PMS5003;43523;53.022;-1.178;2023-05-07T04:53:48;24;17;
57289;PMS5003;43523;53.022;-1.178;2023-05-07T04:54:50;15;13;
57289;PMS5003;43523;53.022;-1.178;2023-05-07T04:55:54;14;14;
57289;PMS5003;43523;53.022;-1.178;2023-05-07T04:56:57;9;8;
57289;PMS5003;43523;53.022;-1.178;2023-05-07T04:57:59;15;12;
57289;PMS5003;43523;53.022;-1.178;2023-05-07T04:59:02;17;13;
57289;PMS5003;43523;53.022;-1.178;2023-05-07T05:00:05;15;11;
57289;PMS5003;43523;53.022;-1.178;2023-05-07T05:01:09;13;7;
57289;PMS5003;43523;53.022;-1.178;2023-05-07T05:02:12;16;12;
57289;PMS5003;43523;53.022;-1.178;2023-05-07T05:03:14;17;12;
57289;PMS5003;43523;53.022;-1.178;2023-05-07T05:04:17;12;11;
57289;PMS5003;43523;53.022;-1.178;2023-05-07T05:05:19;16;13;
57289;PMS5003;43523;53.022;-1.178;2023-05-07T05:06:22;15;12;
57289;PMS5003;43523;53.022;-1.178;2023-05-07T05:07:25;13;11;
57289;PMS5003;43523;53.022;-1.178;2023-05-07T05:08:27;13;12;
57289;PMS5003;43523;53.022;-1.178;2023-05-07T05:09:31;13;10;
57289;PMS5003;43523;53.022;-1.178;2023-05-07T05:10:33;12;10;
57289;PMS5003;43523;53.022;-1.178;2023-05-07T05:11:36;15;12;
57289;PMS5003;43523;53.022;-1.178;2023-05-07T05:12:38;14;11;
57289;PMS5003;43523;53.022;-1.178;2023-05-07T05:13:40;15;14;
57289;PMS5003;43523;53.022;-1.178;2023-05-07T05:14:42;13;10;
57289;PMS5003;43523;53.022;-1.178;2023-05-07T05:15:46;16;10;
57289;PMS5003;43523;53.022;-1.178;2023-05-07T05:16:48;11;11;
57289;PMS5003;43523;53.022;-1.178;2023-05-07T05:17:50;7;7;
57289;PMS5003;43523;53.022;-1.178;2023-05-07T05:18:53;14;11;
57289;PMS5003;43523;53.022;-1.178;2023-05-07T05:19:55;17;12;
57289;PMS5003;43523;53.022;-1.178;2023-05-07T05:20:58;13;13;
57289;PMS5003;43523;53.022;-1.178;2023-05-07T05:22:00;15;11;
57289;PMS5003;43523;53.022;-1.178;2023-05-07T05:23:04;9;9;
57289;PMS5003;43523;53.022;-1.178;2023-05-07T05:24:08;15;11;
57289;PMS5003;43523;53.022;-1.178;2023-05-07T05:25:11;14;10;
57289;PMS5003;43523;53.022;-1.178;2023-05-07T05:26:13;12;8;
57289;PMS5003;43523;53.022;-1.178;2023-05-07T05:27:15;12;8;
57289;PMS5003;43523;53.022;-1.178;2023-05-07T05:28:17;21;12;
57289;PMS5003;43523;53.022;-1.178;2023-05-07T05:29:20;12;11;
57289;PMS5003;43523;53.022;-1.178;2023-05-07T05:30:27;14;13;
57289;PMS5003;43523;53.022;-1.178;2023-05-07T05:31:29;15;13;
57289;PMS5003;43523;53.022;-1.178;2023-05-07T05:32:31;21;15;
57289;PMS5003;43523;53.022;-1.178;2023-05-07T05:33:33;17;15;
57289;PMS5003;43523;53.022;-1.178;2023-05-07T05:34:36;20;13;
57289;PMS5003;43523;53.022;-1.178;2023-05-07T05:35:39;13;13;
57289;PMS5003;43523;53.022;-1.178;2023-05-07T05:36:41;11;10;
57289;PMS5003;43523;53.022;-1.178;2023-05-07T05:37:43;12;12;
57289;PMS5003;43523;53.022;-1.178;2023-05-07T05:38:46;13;9;
57289;PMS5003;43523;53.022;-1.178;2023-05-07T05:39:49;8;7;
57289;PMS5003;43523;53.022;-1.178;2023-05-07T05:40:51;15;11;
57289;PMS5003;43523;53.022;-1.178;2023-05-07T05:41:53;19;11;
57289;PMS5003;43523;53.022;-1.178;2023-05-07T05:42:55;19;15;
57289;PMS5003;43523;53.022;-1.178;2023-05-07T05:43:57;17;14;
57289;PMS5003;43523;53.022;-1.178;2023-05-07T05:45:00;13;8;
57289;PMS5003;43523;53.022;-1.178;2023-05-07T05:46:02;11;11;
57289;PMS5003;43523;53.022;-1.178;2023-05-07T05:47:05;11;8;
57289;PMS5003;43523;53.022;-1.178;2023-05-07T05:48:07;16;12;
57289;PMS5003;43523;53.022;-1.178;2023-05-07T05:49:09;12;10;
57289;PMS5003;43523;53.022;-1.178;2023-05-07T05:50:11;18;14;
57289;PMS5003;43523;53.022;-1.178;2023-05-07T05:51:14;14;10;
57289;PMS5003;43523;53.022;-1.178;2023-05-07T05:52:16;17;13;
57289;PMS5003;43523;53.022;-1.178;2023-05-07T05:53:18;16;13;
57289;PMS5003;43523;53.022;-1.178;2023-05-07T05:54:20;19;15;
57289;PMS5003;43523;53.022;-1.178;2023-05-07T05:55:23;13;11;
57289;PMS5003;43523;53.022;-1.178;2023-05-07T05:56:25;16;13;
57289;PMS5003;43523;53.022;-1.178;2023-05-07T05:57:27;10;8;
57289;PMS5003;43523;53.022;-1.178;2023-05-07T05:58:29;15;13;
57289;PMS5003;43523;53.022;-1.178;2023-05-07T05:59:32;15;13;
57289;PMS5003;43523;53.022;-1.178;2023-05-07T06:00:34;19;16;
57289;PMS5003;43523;53.022;-1.178;2023-05-07T06:01:36;20;17;
57289;PMS5003;43523;53.022;-1.178;2023-05-07T06:02:39;17;17;
57289;PMS5003;43523;53.022;-1.178;2023-05-07T06:03:41;19;15;
57289;PMS5003;43523;53.022;-1.178;2023-05-07T06:04:43;18;14;
57289;PMS5003;43523;53.022;-1.178;2023-05-07T06:05:46;15;13;
57289;PMS5003;43523;53.022;-1.178;2023-05-07T06:06:48;17;16;
57289;PMS5003;43523;53.022;-1.178;2023-05-07T06:07:51;14;12;
57289;PMS5003;43523;53.022;-1.178;2023-05-07T06:08:53;17;14;
57289;PMS5003;43523;53.022;-1.178;2023-05-07T06:09:55;11;11;
57289;PMS5003;43523;53.022;-1.178;2023-05-07T06:10:58;13;13;
57289;PMS5003;43523;53.022;-1.178;2023-05-07T06:12:00;15;12;
57289;PMS5003;43523;53.022;-1.178;2023-05-07T06:13:03;19;13;
57289;PMS5003;43523;53.022;-1.178;2023-05-07T06:14:06;19;12;
57289;PMS5003;43523;53.022;-1.178;2023-05-07T06:15:10;19;17;
57289;PMS5003;43523;53.022;-1.178;2023-05-07T06:16:12;24;18;
57289;PMS5003;43523;53.022;-1.178;2023-05-07T06:17:15;15;12;
57289;PMS5003;43523;53.022;-1.178;2023-05-07T06:18:17;20;15;
57289;PMS5003;43523;53.022;-1.178;2023-05-07T06:19:20;19;14;
57289;PMS5003;43523;53.022;-1.178;2023-05-07T06:20:22;16;13;
57289;PMS5003;43523;53.022;-1.178;2023-05-07T06:21:24;21;18;
57289;PMS5003;43523;53.022;-1.178;2023-05-07T06:22:26;17;17;
57289;PMS5003;43523;53.022;-1.178;2023-05-07T06:23:29;22;16;
57289;PMS5003;43523;53.022;-1.178;2023-05-07T06:24:31;21;17;
57289;PMS5003;43523;53.022;-1.178;2023-05-07T06:25:34;26;23;
57289;PMS5003;43523;53.022;-1.178;2023-05-07T06:26:36;22;18;
57289;PMS5003;43523;53.022;-1.178;2023-05-07T06:27:38;20;19;
57289;PMS5003;43523;53.022;-1.178;2023-05-07T06:28:40;18;14;
57289;PMS5003;43523;53.022;-1.178;2023-05-07T06:29:42;23;16;
57289;PMS5003;43523;53.022;-1.178;2023-05-07T06:30:46;19;17;
57289;PMS5003;43523;53.022;-1.178;2023-05-07T06:31:49;23;19;
57289;PMS5003;43523;53.022;-1.178;2023-05-07T06:32:51;20;16;
57289;PMS5003;43523;53.022;-1.178;2023-05-07T06:33:53;14;13;
57289;PMS5003;43523;53.022;-1.178;2023-05-07T06:34:55;18;15;
57289;PMS5003;43523;53.022;-1.178;2023-05-07T06:35:57;20;16;
57289;PMS5003;43523;53.022;-1.178;2023-05-07T06:37:00;19;17;
57289;PMS5003;43523;53.022;-1.178;2023-05-07T06:38:02;19;18;
57289;PMS5003;43523;53.022;-1.178;2023-05-07T06:39:04;18;18;
57289;PMS5003;43523;53.022;-1.178;2023-05-07T06:40:07;22;17;
57289;PMS5003;43523;53.022;-1.178;2023-05-07T06:41:10;16;14;
57289;PMS5003;43523;53.022;-1.178;2023-05-07T06:42:13;17;12;
57289;PMS5003;43523;53.022;-1.178;2023-05-07T06:43:15;22;20;
57289;PMS5003;43523;53.022;-1.178;2023-05-07T06:44:17;20;16;
57289;PMS5003;43523;53.022;-1.178;2023-05-07T06:45:20;17;15;
57289;PMS5003;43523;53.022;-1.178;2023-05-07T06:46:22;16;13;
57289;PMS5003;43523;53.022;-1.178;2023-05-07T06:47:24;17;13;
57289;PMS5003;43523;53.022;-1.178;2023-05-07T06:48:26;16;13;
57289;PMS5003;43523;53.022;-1.178;2023-05-07T06:49:29;18;18;
57289;PMS5003;43523;53.022;-1.178;2023-05-07T06:50:31;22;19;